Lily Bay Township, Maine
Current Conditions -  °F | °C
As of 12:53 AM on Sunday 26 Oct 2014 (Local Time) from KMLT Reporting Station
Light Rain Light Rain  
Wind Chill: 42°   Ceiling: 5000
Heat Index: 42°   Visibility: 9mi
Dew Point: 40°   Wind: 0mph
Humidity: 92%   Direction: NA
Pressure: 29.45"   Gusts: NA
Location:  45.7313°N, 69.33°W
Report Text: KMLT 260453Z AUTO 00000KT 9SM -RA OVC050 06/04 A2945 RMK AO2 RAB10 SLP980 P0002 T00560044 401220044
Loading
Personal Weather Stations






























Interactive Weather Map
Tropical Storm Tracking
New forecast layout! Learn more

10-Day Weather Forecast

Advertisements
Track Severe Weather on mobile